Beta Version
Granted Patents


NoDepositNoTitlePatent NoGrant DateDocument
1 GC 2010-17333 METHOD FOR CATALYTIC CRACKING WITH MAXIMIZATION OF DIESEL BASE STOCKS GC0010268 2019/04/21 HTML
2 GC 2015-29364 COAL FIRED OXY PLANT WITH HEAT INTEGRATION GC0010267 2019/04/21 HTML
3 GC 2014-27539 NEW SALT OF 3-[3-{[4-4-MORPHOLINYLMETHYL-1H-PYRROL-2-YL]METHYLENE}-2-OXO-2,3-DIHYDRO-1H-INDOL-5-YLMETHYL]-1,3-THIAZOLIDINE-2,4-DIONE, ITS PREPARATION, AND FORMULATIONS CONTAINING IT GC0010266 2019/04/21 HTML
4 GC 2017-33882 METHODS OF ACOUSTICALLY COMMUNICATING AND WELLS THAT UTILIZE THE METHODS GC0010265 2019/04/21 HTML
5 GC 2016-32254 METHOD FOR SEPARATING CARBON DIOXIDE GC0010264 2019/04/21 HTML
6 GC 2015-28790 SEPARATION PREVENTIVE PIPE JOINT AND PIPELINE CONSTITUENT MEMBER GC0010263 2019/04/21 HTML
7 GC 2015-29936 REMOVAL OF CARBON DIOXIDE FROM A FLUID STREAM GC0010262 2019/04/21 HTML
8 GC 2015-29396 PROCESS FOR PREPARING AN UNSATURATED CARBOXYLIC ACID SALT GC0010261 2019/04/21 HTML
9 GC 2005-5471 TREATMENT OF LATENT TUBERCULOSIS GC0010260 2019/04/18 HTML
10 GC 2012-20898 METHOD FOR STOPPING OPERATION OF REACTOR GC0010259 2019/04/18 HTML
11 GC 2013-23493 PROCESS FOR THE PREPARATION OF A ZEOLITIC MATERIAL GC0010258 2019/04/18 HTML
12 GC 2014-26680 FOULING MITIGATION IN EQUPIMENT USED DURING HYDROCARBON PRODUCTION GC0010257 2019/04/18 HTML
13 GC 2011-18465 SYSTEM FOR SEISMIC HYDROCARBON SYSTEM ANALYSIS GC0010256 2019/04/18 HTML
14 GC 2012-21833 AUTOMATIC OPTIMIZING METHODS FOR RESERVOIR TESTING GC0010255 2019/04/18 HTML
15 GC 2012-22815 METHODS AND SYSTEMS FOR ANALYZING FORMATION PROPERTIES WHEN PERFORMING SUBTERRANEAN OPERATIONS GC0010254 2019/04/18 HTML
16 GC 2015-30298 SYSTEMS, METHODS, AND COMPUTER MEDIUM TO OPTIMIZE STORAGE FOR HYDROCARBON RESERVOIR SIMULATION GC0010253 2019/04/18 HTML
17 GC 2012-23136 MUTUAL RELEASABLE CONNECTION OF TWO PROP PORTIONS OF A VARIABLE LENGTH CONSTRUCTION PROP GC0010252 2019/04/18 HTML
18 GC 2016-31970 IMPROVEMENT AND AUTOMATIC QUALITY CONTROL OF SEISMIC TRAVEL TIME GC0010251 2019/04/18 HTML
19 GC 2009-14523 INTEGRATED STEAM HEATING IN POLYESTER PRODUCTION PROCESS GC0010250 2019/04/18 HTML
20 GC 2016-30775 DETERMINING DRILLING FLUID LOSS IN A WELLBORE GC0010249 2019/04/18 HTML
21 GC 2015-29724 A HYDROPROCESSING CATALYST FOR TREATING A HYDROCARBON FEED HAVING AN ARSENIC CONCENTRATION AND A METHOD OF MAKING AND USING SUCH CATALYST GC0010248 2019/04/18 HTML
22 GC 2014-28374 A PROCESS FOR THE CATALYTIC CONVERSION OF MICRO CARBON RESIDUE CONTENT OF HEAVY HYDROCARBON FEEDSTOCKS AND A LOW SURFACE AREA CATALYST COMPOSITION FOR USE THEREIN GC0010247 2019/04/18 HTML
23 GC 2014-28107 SELECTIVELY SUBSTITUTED QUINOLINE COMPOUNDS GC0010246 2019/04/18 HTML
24 GC 2015-29254 MODULAR SCREW PRESS GC0010245 2019/04/17 HTML
25 GC 2013-25769 CATHODE FOR ELECTROLYTIC EVOLUTION OF HYDROGEN GC0010244 2019/04/17 HTML
26 GC 2016-31116 A PROCESS FOR THE PRODUCTION OF GLYCOLIC ACID OR DERIVATIVES THEREOF FROM FORMALDEHYDE GC0010243 2019/04/17 HTML
27 GC 2014-28648 PROCESS FOR THE ACID-CATALYSED DEHYDRATION OF ETHANOL GC0010242 2019/04/17 HTML
28 GC 2014-27077 LOGGING WHILE DRILLING LWD STEERING VISUALIZATION TOOL METHODS AND SYSTEMS GC0010241 2019/04/17 HTML
29 GC 2014-26973 INTELLIGENT ACTUATOR AND METHOD OF MONITORING ACTUATOR HEALTH AND INTEGRITY GC0010240 2019/04/17 HTML
30 GC 2013-24255 BROMOCRIPTINE FORMULATIONS GC0010239 2019/04/17 HTML
31 GC 2008-12214 Process for producing ammonia synthesis gas GC0010238 2019/04/17 HTML
32 GC 2014-26958 HIGH-TEMPERATURE CROSSLINKED POLYMER FOR USE IN A WELL GC0010237 2019/04/17 HTML
33 GC 2009-13788 NOZZLE ASSEMBLY FOR SEPARATING HYDROCARBON EMULSIONS AND METHODS OF SEPARATING HYDROCARBON EMULSIONS GC0010236 2019/04/17 HTML
34 GC 2011-17952 WATER TREATMENT APPARATUS AND WATER TREATMENT METHOD GC0010235 2019/04/17 HTML
35 GC 2014-26204 DESALINATION SYSTEM GC0010234 2019/04/16 HTML
36 GC 2015-29363 SYSTEM AND PROCESS FOR HANDLING HEAVY OIL RESIDUE GC0010233 2019/04/17 HTML
37 GC 2015-30005 FORMULATION, METHOD AND APPARATUS GC0010232 2019/04/17 HTML
38 GC 2016-31132 GAS-INSULATED SURGE ARRESTER GC0010231 2019/04/17 HTML
39 GC 2016-32108 PROCESS FOR THE SYNTHESIS OF ACRYLIC ACID OLIGOMERS GC0010230 2019/04/17 HTML
40 GC 2013-25912 SELECTIVATION OF ADSORBENTS FOR GAS SEPARATION GC0010229 2019/04/16 HTML
41 GC 2015-29056 SEISMIC SENSOR GC0010228 2019/04/16 HTML
42 GC 2014-27256 SYSTEM AND METHOD OF WASTE HEAT RECOVERY GC0010227 2019/04/16 HTML
43 GC 2012-20779 CIRCULATION AND ROTATION TOOL GC0010226 2019/04/16 HTML
44 GC 2012-20452 CONTROLLED HYDROSTATIC PRESSURE COMPLETION SYSTEM GC0010225 2019/04/16 HTML
45 GC 2012-23243 REAL-TIME DYNAMIC DATA VALIDATION APPARATUS, SYSTEM, PROGRAM CODE, COMPUTER READABLE MEDIUM, AND METHODS FOR INTELLIGENT FIELDS GC0010224 2019/04/16 HTML
46 GC 2012-21915 SYSTEMS AND PROGRAM PRODUCT FOR PERFORMING A FULLY AUTOMATED WORKFLOW FOR WELL PERFORMANCE MODEL CREATION AND CALIBRATION GC0010223 2019/04/16 HTML
47 GC 2013-25858 HIGH PERFORMANCE ZIEGLER-NATTA CATALYST SYSTEMS, PROCESS FOR PRODUCING SUCH SUPPORTED CATALYSTS AND USE THEREOF GC0010222 2019/04/16 HTML
48 GC 2013-25857 HIGH PERFORMANCE ZIEGLER-NATTA CATALYST SYSTEMS, PROCESS FOR PRODUCING SUCH MgCl2 BASED CATALYSTS AND USE THEREOF GC0010221 2019/04/16 HTML
49 GC 2014-27938 ADJUSTABLE MOUNTING DEVICE FOR A SLIDING ELEMENT AND SLIDING DEVICE GC0010220 2019/04/16 HTML
50 GC 2016-31981 NANO-LEVEL EVALUATION OF KEROGEN-RICH RESERVOIR ROCK GC0010219 2019/04/16 HTML
12345678910...
العدد:

All Rights Reserved